Decoded Metar for YBRK (ROCKHAMPTON in AUSTRALIA) (IATA:ROK) | Meteo·Mobile Aviation Weather
aviador You're here:

YBRK Decoded Metar

ROCKHAMPTON in AUSTRALIA
Report Time2018-08-18 04:30:00
UTC Time2018-08-18 05:08:14
Flight Rules vfr VFR
Wind240° at 03 kt
W.Decomp.*RWY 22: 2.9 kt HW 0.6 kt RCW
RWY 15: 0.5 kt HW 3.0 kt RCW
W.Rank240° ranks 29
Current wind is below 240° avg. (5.2)
Visibility9999 m
Phenomena:N/A
Clouds:N/A
Expected CloudBase > 10,400 ft AGL from Temp-Dew spread
CeilingNone
Temp30°C (ISA +15)
Dew Point04°C (19% RH)
Heat Index28.2°C
AAT27.6°C
QNH1013 hPa
Density Alt1,890 ft
Elevation46 ft
Report Wrong Elevation
Raw Report
YBRK 180430Z AUTO 24003KT 9999 // NCD 30/04 Q1013 RF00.0/000.0=

Extra information for YBRK:More info

Metar Taf Metar & Taf Last 4 Metars F.Rules Stats Wind Profile Meteogram Temp Stats Airport Information Weather charts Add Link Nearby VenuesMetar ALERT Operation Metar Decoded Social comments